Time;durP1;ratioP1;P1;durP2;ratioP2;P2;SDS_P1;SDS_P2;PMS_P1;PMS_P2;Temp;Humidity;BMP_temperature;BMP_pressure;BME280_temperature;BME280_humidity;BME280_pressure;Samples;Min_cycle;Max_cycle;Signal;HPM_P1;HPM_P2
2021/04/03 00:00:14;;;;;;;7.93;5.30;;;;;;;10.63;100.00;95476.31;4955264;29;20229;-94
2021/04/03 00:02:41;;;;;;;6.27;5.37;;;;;;;10.73;100.00;95472.59;4955365;29;20647;-96
2021/04/03 00:05:11;;;;;;;6.03;5.33;;;;;;;10.56;100.00;95462.22;4955173;29;20386;-96
2021/04/03 00:07:39;;;;;;;8.57;7.23;;;;;;;10.47;100.00;95458.88;4955202;29;20190;-95
2021/04/03 00:10:09;;;;;;;10.03;7.93;;;;;;;10.31;100.00;95434.56;4955315;28;20257;-95
2021/04/03 00:12:36;;;;;;;8.97;6.73;;;;;;;10.36;100.00;95434.84;4955362;29;20294;-94
2021/04/03 00:15:04;;;;;;;8.30;6.87;;;;;;;10.36;100.00;95419.91;4954754;29;20229;-96
2021/04/03 00:17:32;;;;;;;6.13;5.63;;;;;;;10.27;100.00;95430.66;4954920;29;20281;-94
2021/04/03 00:19:59;;;;;;;6.23;5.03;;;;;;;10.30;100.00;95439.00;4955294;29;20206;-94
2021/04/03 00:22:26;;;;;;;5.00;4.53;;;;;;;10.37;100.00;95447.78;4955035;29;20205;-95
2021/04/03 00:24:53;;;;;;;6.40;5.00;;;;;;;10.48;100.00;95475.44;4954882;29;20209;-96
2021/04/03 00:27:20;;;;;;;5.13;4.63;;;;;;;10.54;100.00;95476.56;4954917;29;20236;-95
2021/04/03 00:29:47;;;;;;;5.53;4.90;;;;;;;10.57;100.00;95471.78;4954950;29;20280;-96
2021/04/03 00:32:14;;;;;;;5.07;4.30;;;;;;;10.74;100.00;95477.69;4954823;29;20233;-95
2021/04/03 00:34:42;;;;;;;5.53;4.90;;;;;;;10.70;100.00;95490.38;4954992;29;20234;-96
2021/04/03 00:37:09;;;;;;;9.43;6.47;;;;;;;10.61;100.00;95472.22;4954970;29;20202;-95
2021/04/03 00:39:35;;;;;;;8.33;7.10;;;;;;;10.31;100.00;95455.56;4954926;29;20619;-95
2021/04/03 00:42:14;;;;;;;11.47;8.33;;;;;;;9.97;100.00;95436.56;4954860;29;20312;-95
2021/04/03 00:44:44;;;;;;;6.00;5.50;;;;;;;9.79;100.00;95420.31;4954765;29;20236;-95
2021/04/03 00:47:12;;;;;;;5.93;4.97;;;;;;;9.67;100.00;95417.28;4954703;29;20182;-95
2021/04/03 00:49:39;;;;;;;7.73;5.20;;;;;;;9.81;100.00;95414.91;4954683;29;20205;-96
2021/04/03 00:52:09;;;;;;;7.10;5.33;;;;;;;9.89;100.00;95420.88;4954654;29;20281;-95
2021/04/03 00:54:36;;;;;;;10.40;5.30;;;;;;;9.90;100.00;95424.31;4955868;28;20228;-94
2021/04/03 00:57:04;;;;;;;17.20;8.43;;;;;;;9.77;100.00;95424.94;4958292;29;20206;-96
2021/04/03 00:59:31;;;;;;;8.40;5.97;;;;;;;9.90;100.00;95417.25;4958466;29;20248;-96
2021/04/03 01:01:58;;;;;;;7.37;5.60;;;;;;;9.59;100.00;95412.06;4958711;29;20217;-95
2021/04/03 01:04:25;;;;;;;8.73;6.37;;;;;;;9.70;100.00;95406.44;4958955;29;20269;-95
2021/04/03 01:06:52;;;;;;;5.40;4.30;;;;;;;9.70;100.00;95409.06;4958289;29;20202;-95
2021/04/03 01:09:20;;;;;;;4.13;3.80;;;;;;;9.77;100.00;95412.63;4958100;28;20601;-95
2021/04/03 01:11:58;;;;;;;6.47;3.90;;;;;;;9.87;100.00;95406.31;4958178;29;20682;-96
2021/04/03 01:14:34;;;;;;;10.87;3.60;;;;;;;9.96;100.00;95407.88;4958085;29;20252;-96
2021/04/03 01:17:09;;;;;;;6.93;4.17;;;;;;;10.10;100.00;95412.38;4958140;29;20284;-96
2021/04/03 01:20:12;;;;;;;5.97;3.57;;;;;;;10.05;100.00;95398.97;4957893;29;20196;-94
2021/04/03 01:22:59;;;;;;;6.17;4.23;;;;;;;10.04;100.00;95392.06;4958842;29;20265;-95
2021/04/03 01:25:37;;;;;;;4.40;3.93;;;;;;;10.04;100.00;95365.00;4958040;29;20754;-96
2021/04/03 01:28:30;;;;;;;9.37;3.90;;;;;;;10.05;100.00;95366.66;4957972;29;20204;-95
2021/04/03 01:30:59;;;;;;;6.07;3.90;;;;;;;10.12;100.00;95376.25;4957907;29;20202;-95
2021/04/03 01:33:27;;;;;;;4.00;3.00;;;;;;;10.09;100.00;95370.53;4957756;29;20225;-96
2021/04/03 01:36:02;;;;;;;5.60;3.63;;;;;;;10.09;100.00;95373.97;4957759;29;20210;-96
2021/04/03 01:38:33;;;;;;;6.30;4.13;;;;;;;10.14;100.00;95376.88;4958404;29;20201;-95
2021/04/03 01:41:02;;;;;;;4.33;4.03;;;;;;;10.05;100.00;95380.59;4957687;29;20206;-95
2021/04/03 01:43:36;;;;;;;7.10;5.13;;;;;;;10.23;100.00;95370.56;4957686;29;20206;-95
2021/04/03 01:46:06;;;;;;;5.10;4.57;;;;;;;10.09;100.00;95376.59;4957518;29;20225;-95
2021/04/03 01:48:36;;;;;;;6.50;4.17;;;;;;;10.30;100.00;95375.97;4957575;29;20202;-96
2021/04/03 01:51:03;;;;;;;4.03;3.33;;;;;;;10.18;100.00;95386.06;4957380;29;20225;-96
2021/04/03 01:53:30;;;;;;;5.03;4.23;;;;;;;10.32;100.00;95391.53;4958009;29;20642;-96
2021/04/03 01:55:58;;;;;;;5.13;3.13;;;;;;;10.08;100.00;95389.91;4957663;29;20222;-94
2021/04/03 01:58:26;;;;;;;6.60;3.40;;;;;;;10.00;100.00;95383.72;4957396;29;20265;-96
2021/04/03 02:00:53;;;;;;;4.30;3.90;;;;;;;9.98;100.00;95392.78;4957310;29;20206;-95
2021/04/03 02:03:21;;;;;;;4.80;3.57;;;;;;;10.03;100.00;95376.50;4957058;29;20229;-96
2021/04/03 02:05:49;;;;;;;4.00;3.43;;;;;;;10.13;100.00;95387.56;4956818;28;20679;-95
2021/04/03 02:08:18;;;;;;;7.40;3.90;;;;;;;10.08;100.00;95396.00;4957096;28;20312;-96
2021/04/03 02:10:46;;;;;;;4.23;3.73;;;;;;;10.19;100.00;95390.31;4956989;29;20186;-95
2021/04/03 02:13:14;;;;;;;8.37;4.30;;;;;;;10.17;100.00;95401.97;4957035;29;20233;-95
2021/04/03 02:15:42;;;;;;;6.27;3.80;;;;;;;10.24;100.00;95401.09;4956791;29;20312;-95
2021/04/03 02:18:09;;;;;;;4.87;3.90;;;;;;;9.95;100.00;95390.50;4957222;29;20229;-95
2021/04/03 02:20:38;;;;;;;4.60;4.20;;;;;;;9.86;100.00;95386.31;4957028;29;20236;-95
2021/04/03 02:23:05;;;;;;;4.73;3.43;;;;;;;9.83;100.00;95371.72;4957046;29;20228;-95
2021/04/03 02:25:32;;;;;;;10.50;4.13;;;;;;;9.88;100.00;95366.78;4956921;29;20208;-96
2021/04/03 02:27:59;;;;;;;6.27;3.77;;;;;;;10.02;100.00;95374.88;4956752;29;20221;-96
2021/04/03 02:30:26;;;;;;;7.97;5.93;;;;;;;10.09;100.00;95373.97;4956768;29;20285;-95
2021/04/03 02:32:54;;;;;;;6.37;4.13;;;;;;;10.14;100.00;95383.94;4956861;29;20221;-95
2021/04/03 02:35:24;;;;;;;4.23;3.80;;;;;;;10.17;100.00;95383.59;4956586;29;20312;-96
2021/04/03 02:37:57;;;;;;;6.63;4.27;;;;;;;10.22;100.00;95386.53;4956676;29;20290;-95
2021/04/03 02:40:26;;;;;;;4.27;3.87;;;;;;;10.26;100.00;95387.81;4956915;29;20610;-94
2021/04/03 02:43:00;;;;;;;7.03;4.10;;;;;;;10.14;100.00;95374.25;4956594;29;20206;-96
2021/04/03 02:45:29;;;;;;;5.37;3.90;;;;;;;10.18;100.00;95369.47;4956816;29;20217;-96
2021/04/03 02:48:01;;;;;;;4.33;3.43;;;;;;;10.11;100.00;95358.84;4956798;29;20224;-96
2021/04/03 02:50:40;;;;;;;5.10;3.77;;;;;;;9.99;100.00;95357.66;4956788;29;20197;-96
2021/04/03 02:53:10;;;;;;;9.60;4.53;;;;;;;9.81;100.00;95352.72;4956437;29;20201;-96
2021/04/03 02:55:41;;;;;;;4.33;3.90;;;;;;;9.84;100.00;95347.13;4956283;29;20312;-96
2021/04/03 02:58:10;;;;;;;4.30;3.90;;;;;;;9.73;100.00;95344.91;4956114;29;20678;-95
2021/04/03 03:00:37;;;;;;;8.03;4.40;;;;;;;9.61;100.00;95338.44;4956073;29;20285;-96
2021/04/03 03:03:06;;;;;;;4.90;3.90;;;;;;;9.56;100.00;95322.41;4956468;29;20640;-96
2021/04/03 03:05:33;;;;;;;8.97;4.23;;;;;;;9.33;100.00;95306.69;4956648;29;20284;-93
2021/04/03 03:08:03;;;;;;;7.03;4.00;;;;;;;9.29;100.00;95301.78;4956127;28;20189;-94
2021/04/03 03:10:33;;;;;;;11.07;9.97;;;;;;;9.39;100.00;95283.19;4956197;29;20565;-94
2021/04/03 03:13:02;;;;;;;9.23;7.87;;;;;;;9.44;100.00;95293.16;4956076;29;20269;-94
2021/04/03 03:15:32;;;;;;;9.80;8.57;;;;;;;9.31;100.00;95293.72;4955887;29;20320;-93
2021/04/03 03:18:01;;;;;;;8.57;7.57;;;;;;;9.36;100.00;95274.88;4955076;28;20229;-96
2021/04/03 03:20:29;;;;;;;7.63;5.67;;;;;;;9.15;100.00;95278.13;4955944;29;20596;-94
2021/04/03 03:22:57;;;;;;;7.47;6.57;;;;;;;9.18;100.00;95275.13;4955677;29;20202;-94
2021/04/03 03:25:25;;;;;;;4.80;4.40;;;;;;;9.23;100.00;95284.13;4955828;29;20590;-94
2021/04/03 03:27:55;;;;;;;5.80;4.90;;;;;;;9.02;100.00;95292.59;4955825;29;20204;-94
2021/04/03 03:30:24;;;;;;;9.47;5.33;;;;;;;8.88;100.00;95287.28;4955793;29;20198;-94
2021/04/03 03:32:51;;;;;;;6.67;4.87;;;;;;;8.75;100.00;95264.25;4955623;29;20289;-94
2021/04/03 03:35:19;;;;;;;12.53;9.33;;;;;;;8.73;100.00;95261.00;4955409;29;20619;-95
2021/04/03 03:37:48;;;;;;;21.70;14.83;;;;;;;8.97;100.00;95260.88;4956255;29;20213;-95
2021/04/03 03:40:16;;;;;;;32.30;18.67;;;;;;;9.11;100.00;95267.16;4955576;29;20224;-95
2021/04/03 03:42:44;;;;;;;36.40;23.17;;;;;;;8.96;100.00;95269.69;4955671;29;20292;-93
2021/04/03 03:45:14;;;;;;;30.70;21.13;;;;;;;8.74;100.00;95260.81;4955609;29;20667;-94
2021/04/03 03:47:41;;;;;;;35.67;22.90;;;;;;;8.97;100.00;95239.06;4955407;29;20232;-96
2021/04/03 03:50:10;;;;;;;67.87;40.83;;;;;;;8.71;100.00;95240.19;4955706;29;20743;-95
2021/04/03 03:52:37;;;;;;;50.47;37.23;;;;;;;8.79;100.00;95213.13;4974088;28;20259;-96
2021/04/03 03:55:05;;;;;;;56.70;42.87;;;;;;;8.75;100.00;95215.28;4974592;28;20225;-96
2021/04/03 03:57:33;;;;;;;7.47;5.77;;;;;;;8.47;100.00;95195.81;4975386;28;20208;-95
2021/04/03 04:00:00;;;;;;;6.17;4.30;;;;;;;8.49;100.00;95170.28;4974910;28;20208;-96
2021/04/03 04:02:28;;;;;;;5.77;4.40;;;;;;;8.55;100.00;95148.63;4974442;28;20204;-96
2021/04/03 04:04:55;;;;;;;5.23;4.50;;;;;;;8.65;100.00;95151.81;4974466;28;20201;-95
2021/04/03 04:07:22;;;;;;;4.97;4.47;;;;;;;8.74;100.00;95152.59;4974430;28;20217;-95
2021/04/03 04:09:49;;;;;;;7.30;6.60;;;;;;;8.77;100.00;95166.16;4974196;28;20315;-94
2021/04/03 04:12:16;;;;;;;14.90;8.13;;;;;;;8.90;100.00;95165.59;4975130;28;20204;-96
2021/04/03 04:14:43;;;;;;;7.20;6.03;;;;;;;9.10;100.00;95165.91;4974660;28;20258;-94
2021/04/03 04:17:09;;;;;;;7.60;5.80;;;;;;;9.16;100.00;95173.06;4974294;28;20659;-96
2021/04/03 04:19:38;;;;;;;6.00;5.40;;;;;;;9.35;100.00;95199.78;4974266;28;20284;-95
2021/04/03 04:22:05;;;;;;;7.40;5.77;;;;;;;9.39;100.00;95219.44;4975773;28;20213;-96
2021/04/03 04:24:32;;;;;;;11.50;5.70;;;;;;;9.47;100.00;95216.75;4982152;28;20232;-96
2021/04/03 04:27:09;;;;;;;5.50;5.00;;;;;;;9.52;100.00;95238.84;4991679;28;20209;-94
2021/04/03 04:29:36;;;;;;;8.07;4.47;;;;;;;9.53;100.00;95232.59;4977437;28;20204;-96
2021/04/03 04:32:04;;;;;;;7.37;5.13;;;;;;;9.71;100.00;95236.69;4980570;28;20596;-96
2021/04/03 04:34:31;;;;;;;17.67;12.43;;;;;;;9.70;100.00;95235.88;4981131;28;20654;-96
2021/04/03 04:36:59;;;;;;;28.13;21.43;;;;;;;9.49;100.00;95222.59;4980788;28;20227;-96
2021/04/03 04:39:26;;;;;;;21.63;15.73;;;;;;;9.25;100.00;95206.09;4981800;28;20205;-96
2021/04/03 04:41:53;;;;;;;20.67;18.87;;;;;;;9.11;100.00;95199.03;4981079;28;20204;-96
2021/04/03 04:44:19;;;;;;;17.10;12.73;;;;;;;9.31;100.00;95175.72;4980850;28;20701;-96
2021/04/03 04:46:46;;;;;;;12.07;10.83;;;;;;;9.22;100.00;95195.16;4980742;28;20279;-96
2021/04/03 04:49:13;;;;;;;13.40;8.67;;;;;;;9.27;100.00;95198.06;4980764;28;20212;-96
2021/04/03 04:51:40;;;;;;;11.60;10.50;;;;;;;9.28;100.00;95204.91;4980278;28;20201;-96
2021/04/03 04:54:08;;;;;;;18.73;14.67;;;;;;;9.32;100.00;95197.50;4980255;28;20236;-96
2021/04/03 04:56:35;;;;;;;18.17;13.33;;;;;;;9.47;100.00;95201.00;4980468;28;20197;-96
2021/04/03 04:59:02;;;;;;;17.10;15.13;;;;;;;9.45;100.00;95153.16;4980382;28;20207;-96
2021/04/03 05:01:29;;;;;;;10.80;9.30;;;;;;;9.60;100.00;95106.78;4980291;28;20694;-96
2021/04/03 05:03:56;;;;;;;13.53;7.57;;;;;;;9.75;100.00;95086.59;4980407;28;20212;-96
2021/04/03 05:06:23;;;;;;;8.77;7.23;;;;;;;9.97;100.00;95076.16;4980355;28;20227;-96
2021/04/03 05:08:50;;;;;;;12.50;10.07;;;;;;;10.00;100.00;95070.53;4980268;28;20248;-96
2021/04/03 05:11:17;;;;;;;13.37;10.33;;;;;;;10.00;100.00;95052.16;4980516;28;20292;-96
2021/04/03 05:13:44;;;;;;;16.33;12.83;;;;;;;10.03;100.00;95051.78;4980158;28;20207;-96
2021/04/03 05:16:11;;;;;;;15.63;12.90;;;;;;;9.82;100.00;95039.44;4980315;28;20207;-95
2021/04/03 05:18:38;;;;;;;14.87;13.03;;;;;;;9.99;100.00;95017.22;4979987;28;20666;-95
2021/04/03 05:21:05;;;;;;;17.13;13.97;;;;;;;9.72;100.00;95038.91;4980021;28;20205;-96
2021/04/03 05:23:32;;;;;;;17.20;11.90;;;;;;;9.61;100.00;95053.31;4980280;28;20279;-96
2021/04/03 05:25:59;;;;;;;12.07;10.43;;;;;;;9.46;100.00;95065.63;4980055;28;20265;-96
2021/04/03 05:28:27;;;;;;;15.40;13.07;;;;;;;9.58;100.00;95048.44;4980152;28;20251;-96
2021/04/03 05:30:54;;;;;;;22.40;17.83;;;;;;;9.67;100.00;95028.97;4979913;28;20235;-96
2021/04/03 05:33:21;;;;;;;23.53;17.43;;;;;;;9.74;100.00;94992.31;4980069;28;20279;-96
2021/04/03 05:35:47;;;;;;;23.03;18.10;;;;;;;9.79;100.00;94983.88;4979770;28;20673;-96
2021/04/03 05:38:14;;;;;;;28.90;20.30;;;;;;;10.13;100.00;94978.81;4980089;28;20200;-96
2021/04/03 05:40:41;;;;;;;22.70;20.37;;;;;;;10.25;100.00;94981.72;4979090;28;20634;-96
2021/04/03 05:43:09;;;;;;;13.23;11.03;;;;;;;10.14;100.00;94988.28;4977370;28;20588;-94
2021/04/03 05:45:38;;;;;;;11.40;9.80;;;;;;;10.03;100.00;94983.53;4976777;28;20197;-94
2021/04/03 05:48:06;;;;;;;8.40;7.47;;;;;;;10.02;100.00;94952.25;4957541;29;20296;-94
2021/04/03 05:50:35;;;;;;;9.23;8.27;;;;;;;9.96;100.00;94924.91;4957279;29;20197;-92
2021/04/03 05:53:03;;;;;;;10.63;9.17;;;;;;;10.20;100.00;94892.22;4957361;29;20218;-93
2021/04/03 05:55:30;;;;;;;9.87;9.00;;;;;;;10.38;100.00;94882.09;4957302;29;20268;-94
2021/04/03 05:57:57;;;;;;;9.13;7.77;;;;;;;10.34;100.00;94898.41;4957269;29;20256;-94
2021/04/03 06:00:24;;;;;;;10.77;7.87;;;;;;;10.34;100.00;94924.69;4957199;29;20338;-94
2021/04/03 06:02:52;;;;;;;9.43;6.47;;;;;;;10.41;100.00;94915.84;4957083;29;20206;-95
2021/04/03 06:05:19;;;;;;;8.73;7.37;;;;;;;10.67;100.00;94954.66;4957133;29;20715;-94
2021/04/03 06:07:46;;;;;;;9.50;8.20;;;;;;;10.91;100.00;94982.31;4957423;29;20194;-94
2021/04/03 06:10:14;;;;;;;11.90;9.33;;;;;;;10.95;100.00;94994.06;4977265;28;20193;-95
2021/04/03 06:12:42;;;;;;;9.80;7.77;;;;;;;11.01;100.00;95023.22;4976416;28;20190;-94
2021/04/03 06:15:14;;;;;;;18.27;11.00;;;;;;;11.17;100.00;95026.38;4976115;28;20276;-94
2021/04/03 06:17:41;;;;;;;123.13;92.63;;;;;;;11.33;100.00;95053.38;4976503;28;20570;-94
2021/04/03 06:20:10;;;;;;;32.47;23.97;;;;;;;11.44;100.00;95092.31;4976504;28;20197;-92
2021/04/03 06:22:48;;;;;;;16.23;13.57;;;;;;;11.56;100.00;95127.59;4976326;28;20197;-92
2021/04/03 06:25:16;;;;;;;19.57;17.03;;;;;;;11.66;100.00;95091.22;4976202;28;20682;-93
2021/04/03 06:27:43;;;;;;;32.13;22.10;;;;;;;11.73;100.00;95119.41;4976084;28;20193;-92
2021/04/03 06:30:31;;;;;;;63.73;42.13;;;;;;;11.78;100.00;95182.81;4976005;28;20241;-92
2021/04/03 06:33:13;;;;;;;16.67;11.27;;;;;;;11.95;100.00;95231.59;4976109;28;20204;-91
2021/04/03 06:35:41;;;;;;;13.20;10.43;;;;;;;12.08;100.00;95230.84;4975877;28;20270;-92
2021/04/03 06:38:21;;;;;;;13.73;8.57;;;;;;;12.26;100.00;95248.78;4976115;28;20292;-92
2021/04/03 06:40:48;;;;;;;8.33;7.47;;;;;;;12.30;100.00;95256.09;4975716;28;20207;-93
2021/04/03 06:43:16;;;;;;;9.80;7.03;;;;;;;12.45;100.00;95247.28;4975841;28;20680;-92
2021/04/03 06:45:44;;;;;;;8.17;7.37;;;;;;;12.61;100.00;95231.94;4976415;28;20303;-92
2021/04/03 06:48:12;;;;;;;9.43;6.50;;;;;;;12.63;100.00;95230.94;4994950;28;20671;-92
2021/04/03 06:50:42;;;;;;;7.63;6.60;;;;;;;12.79;100.00;95212.94;4994958;28;20274;-92
2021/04/03 06:53:11;;;;;;;7.47;6.70;;;;;;;12.91;100.00;95236.91;4993881;28;20266;-91
2021/04/03 06:55:39;;;;;;;7.30;6.63;;;;;;;13.00;100.00;95261.28;4994999;28;20285;-89
2021/04/03 06:58:07;;;;;;;43.80;24.40;;;;;;;13.13;100.00;95260.50;4995211;28;20223;-90
2021/04/03 07:00:35;;;;;;;35.70;20.80;;;;;;;13.09;100.00;95276.75;4994998;28;20194;-91
2021/04/03 07:03:04;;;;;;;11.67;9.50;;;;;;;13.00;100.00;95282.41;4995056;28;20283;-91
2021/04/03 07:05:35;;;;;;;37.70;23.33;;;;;;;12.99;100.00;95286.84;4994772;28;20255;-90
2021/04/03 07:08:05;;;;;;;21.37;16.20;;;;;;;12.97;100.00;95293.34;4993152;28;20289;-91
2021/04/03 07:10:33;;;;;;;70.07;42.47;;;;;;;12.98;100.00;95279.94;4975702;28;20663;-92
2021/04/03 07:13:00;;;;;;;70.20;40.33;;;;;;;12.98;100.00;95263.31;4975242;28;20296;-92
2021/04/03 07:15:29;;;;;;;41.30;28.00;;;;;;;12.91;100.00;95268.56;4974970;28;20263;-93
2021/04/03 07:17:56;;;;;;;31.07;24.43;;;;;;;12.88;100.00;95276.03;4975201;28;20276;-94
2021/04/03 07:20:25;;;;;;;22.30;17.03;;;;;;;12.89;100.00;95291.69;4974962;28;20294;-93
2021/04/03 07:22:57;;;;;;;17.40;15.23;;;;;;;12.98;100.00;95306.31;4974950;28;20257;-93
2021/04/03 07:25:27;;;;;;;14.87;13.27;;;;;;;13.53;100.00;95322.97;4975239;28;20261;-92
2021/04/03 07:27:54;;;;;;;10.03;9.03;;;;;;;13.84;100.00;95363.84;4975212;28;20189;-94
2021/04/03 07:30:41;;;;;;;16.13;11.23;;;;;;;14.13;100.00;95364.47;4974878;28;20200;-93
2021/04/03 07:33:09;;;;;;;11.23;10.03;;;;;;;14.00;100.00;95389.88;4974765;28;20279;-93
2021/04/03 07:35:38;;;;;;;20.70;13.17;;;;;;;14.22;100.00;95434.63;4975097;28;20232;-93
2021/04/03 07:38:10;;;;;;;12.60;11.30;;;;;;;14.53;100.00;95491.44;4975140;28;20270;-92
2021/04/03 07:40:43;;;;;;;32.70;27.83;;;;;;;15.15;100.00;95479.63;4975125;28;20288;-92
2021/04/03 07:43:42;;;;;;;21.47;16.17;;;;;;;15.59;100.00;95500.09;4974626;28;20646;-92
2021/04/03 07:46:14;;;;;;;16.93;11.60;;;;;;;15.57;100.00;95557.75;4975299;28;20213;-93
2021/04/03 07:48:51;;;;;;;11.07;8.60;;;;;;;16.32;100.00;95571.41;4975263;28;20267;-92
2021/04/03 07:51:43;;;;;;;14.27;9.80;;;;;;;16.23;100.00;95611.59;4985173;28;20181;-92
2021/04/03 07:54:29;;;;;;;21.43;16.83;;;;;;;16.37;100.00;95603.38;4974825;28;20213;-92
2021/04/03 07:56:59;;;;;;;13.33;7.77;;;;;;;16.69;100.00;95629.97;4974040;28;20209;-92
2021/04/03 07:59:52;;;;;;;21.47;17.70;;;;;;;16.56;100.00;95632.69;4967171;28;20301;-92
2021/04/03 08:02:22;;;;;;;7.27;5.87;;;;;;;16.85;100.00;95634.81;4955152;29;20213;-92
2021/04/03 08:04:49;;;;;;;12.77;11.13;;;;;;;17.17;100.00;95639.31;4954784;28;20207;-91
2021/04/03 08:07:19;;;;;;;8.37;6.73;;;;;;;17.39;100.00;95634.44;4955078;29;20210;-92
2021/04/03 08:09:46;;;;;;;9.03;6.97;;;;;;;17.00;100.00;95636.34;4954946;28;20243;-90
2021/04/03 08:12:14;;;;;;;10.37;7.20;;;;;;;17.58;100.00;95604.25;4954825;29;20206;-91
2021/04/03 08:14:43;;;;;;;7.73;6.90;;;;;;;17.58;100.00;95631.63;4954784;29;20290;-91
2021/04/03 08:17:21;;;;;;;11.30;8.80;;;;;;;17.67;100.00;95620.75;4955088;29;20213;-91
2021/04/03 08:19:48;;;;;;;14.53;11.60;;;;;;;17.68;100.00;95612.53;4954856;29;20242;-91
2021/04/03 08:22:15;;;;;;;16.53;13.60;;;;;;;18.06;100.00;95603.59;4955197;29;20681;-91
2021/04/03 08:24:55;;;;;;;10.97;7.57;;;;;;;18.36;100.00;95642.72;4954814;29;20205;-91
2021/04/03 08:27:35;;;;;;;12.33;9.13;;;;;;;18.14;100.00;95663.66;4954772;29;20671;-91
2021/04/03 08:30:20;;;;;;;15.57;8.50;;;;;;;18.55;100.00;95662.97;4954882;29;20189;-91
2021/04/03 08:33:02;;;;;;;14.30;9.83;;;;;;;18.63;100.00;95680.50;4954958;29;20275;-91
2021/04/03 08:35:30;;;;;;;8.97;7.90;;;;;;;18.45;100.00;95662.69;4954737;29;20300;-91
2021/04/03 08:38:18;;;;;;;11.50;10.33;;;;;;;17.91;100.00;95637.69;4954644;29;20312;-90
2021/04/03 08:40:46;;;;;;;10.47;7.30;;;;;;;17.42;100.00;95610.09;4954875;29;20234;-91
2021/04/03 08:43:22;;;;;;;12.67;10.90;;;;;;;17.72;100.00;95637.63;4954662;29;20361;-90
2021/04/03 08:45:49;;;;;;;8.83;7.17;;;;;;;17.74;100.00;95645.41;4958790;28;20676;-91
2021/04/03 08:48:16;;;;;;;9.83;8.67;;;;;;;18.27;100.00;95624.41;4973792;28;20291;-90
2021/04/03 08:50:45;;;;;;;11.70;9.27;;;;;;;19.08;100.00;95622.34;4973855;28;20197;-90
2021/04/03 08:53:12;;;;;;;9.83;8.87;;;;;;;18.90;100.00;95638.41;4973644;28;20208;-89
2021/04/03 08:55:38;;;;;;;11.03;8.47;;;;;;;19.13;100.00;95651.81;4973880;28;20263;-90
2021/04/03 08:58:07;;;;;;;11.47;8.47;;;;;;;18.90;100.00;95639.22;4973957;28;20254;-91
2021/04/03 09:00:35;;;;;;;9.17;8.10;;;;;;;19.26;100.00;95674.78;4974016;28;20196;-91
2021/04/03 09:03:03;;;;;;;8.90;8.00;;;;;;;19.38;100.00;95678.28;4973917;28;20630;-91
2021/04/03 09:05:30;;;;;;;8.23;7.43;;;;;;;19.04;100.00;95682.44;4974176;28;20605;-91
2021/04/03 09:07:57;;;;;;;12.53;8.73;;;;;;;19.00;100.00;95665.31;4973495;28;20288;-90
2021/04/03 09:10:25;;;;;;;12.80;11.00;;;;;;;19.14;100.00;95681.91;4973650;28;20201;-91
2021/04/03 09:12:54;;;;;;;9.53;8.37;;;;;;;19.10;100.00;95680.75;4973614;28;20247;-91
2021/04/03 09:15:30;;;;;;;10.63;9.23;;;;;;;18.86;100.00;95671.84;4973528;28;20271;-92
2021/04/03 09:18:00;;;;;;;13.33;10.77;;;;;;;19.25;100.00;95687.28;4977004;28;20672;-91
2021/04/03 09:20:29;;;;;;;9.80;8.90;;;;;;;19.05;100.00;95705.41;4977155;28;20197;-93
2021/04/03 09:23:04;;;;;;;10.00;8.17;;;;;;;18.53;100.00;95681.00;4977240;28;20204;-91
2021/04/03 09:25:31;;;;;;;11.40;7.67;;;;;;;17.32;100.00;95648.59;4977376;28;20223;-92
2021/04/03 09:28:03;;;;;;;9.13;8.23;;;;;;;18.26;100.00;95627.31;4977232;28;20290;-90
2021/04/03 09:30:35;;;;;;;11.83;10.03;;;;;;;19.28;100.00;95599.94;4977176;28;20255;-92
2021/04/03 09:33:22;;;;;;;10.03;9.03;;;;;;;19.13;100.00;95605.72;4976898;28;20284;-92
2021/04/03 09:35:50;;;;;;;13.87;10.37;;;;;;;19.08;100.00;95600.25;4976911;28;20288;-93
2021/04/03 09:38:28;;;;;;;10.80;9.70;;;;;;;19.60;100.00;95600.44;4976833;28;20704;-92
2021/04/03 09:40:55;;;;;;;11.83;10.57;;;;;;;19.93;100.00;95623.91;4976989;28;20177;-92
2021/04/03 09:43:39;;;;;;;10.63;9.63;;;;;;;19.17;100.00;95618.34;4976824;28;20193;-92
2021/04/03 09:46:06;;;;;;;10.77;9.70;;;;;;;18.61;100.00;95600.06;4977125;28;20212;-92
2021/04/03 09:48:35;;;;;;;12.50;10.07;;;;;;;18.83;100.00;95603.88;4976834;28;20232;-92
2021/04/03 09:51:04;;;;;;;11.33;10.13;;;;;;;17.68;100.00;95577.97;4977135;28;20212;-92
2021/04/03 09:53:31;;;;;;;12.23;8.00;;;;;;;17.08;100.00;95602.41;4977010;28;20318;-92
2021/04/03 09:55:58;;;;;;;6.77;6.07;;;;;;;17.05;100.00;95669.22;4976909;28;20230;-92
2021/04/03 09:58:26;;;;;;;12.30;10.37;;;;;;;17.20;100.00;95671.56;4989810;28;20226;-95
2021/04/03 10:00:53;;;;;;;8.10;7.30;;;;;;;17.63;100.00;95668.19;4977512;28;20200;-91
2021/04/03 10:03:20;;;;;;;16.47;12.13;;;;;;;17.79;100.00;95701.41;4976815;28;20701;-91
2021/04/03 10:05:48;;;;;;;12.93;9.27;;;;;;;18.42;100.00;95711.03;4976386;28;20203;-91
2021/04/03 10:08:15;;;;;;;8.03;7.23;;;;;;;19.04;100.00;95722.41;4976402;28;20238;-91
2021/04/03 10:10:42;;;;;;;9.10;7.00;;;;;;;19.44;100.00;95724.53;4976290;28;20695;-90
2021/04/03 10:13:10;;;;;;;10.40;7.13;;;;;;;18.93;100.00;95723.97;4976493;28;20203;-91
2021/04/03 10:15:37;;;;;;;10.87;6.93;;;;;;;19.29;100.00;95713.47;4976540;28;20589;-90
2021/04/03 10:18:05;;;;;;;13.63;9.43;;;;;;;18.82;100.00;95726.59;4976300;28;20295;-91
2021/04/03 10:20:32;;;;;;;8.00;7.30;;;;;;;18.82;100.00;95711.41;4976702;28;20685;-91
2021/04/03 10:23:00;;;;;;;13.47;8.60;;;;;;;18.77;100.00;95722.75;4976506;28;20621;-90
2021/04/03 10:25:27;;;;;;;8.23;7.43;;;;;;;19.16;100.00;95693.97;4976069;28;20291;-90
2021/04/03 10:27:54;;;;;;;8.63;7.40;;;;;;;19.47;100.00;95726.75;4975741;28;20696;-91
2021/04/03 10:30:22;;;;;;;13.63;8.73;;;;;;;19.07;100.00;95737.94;4976080;28;20207;-91
2021/04/03 10:32:49;;;;;;;9.07;7.97;;;;;;;19.40;100.00;95723.38;4975939;28;20196;-91
2021/04/03 10:35:16;;;;;;;14.93;8.63;;;;;;;19.30;100.00;95731.09;4976287;28;20231;-91
2021/04/03 10:37:43;;;;;;;10.03;9.03;;;;;;;19.66;100.00;95696.31;4975883;28;20240;-90
2021/04/03 10:40:17;;;;;;;8.87;7.97;;;;;;;19.43;100.00;95696.25;4983969;28;20204;-88
2021/04/03 10:42:43;;;;;;;9.30;8.40;;;;;;;19.18;100.00;95701.72;4986973;28;20184;-91
2021/04/03 10:45:11;;;;;;;9.17;8.20;;;;;;;19.69;100.00;95714.53;4986792;28;20236;-92
2021/04/03 10:50:26;;;;;;;8.93;8.07;;;;;;;19.68;100.00;95693.44;4980722;28;20196;-89
2021/04/03 10:52:53;;;;;;;9.00;8.20;;;;;;;19.98;100.00;95706.66;4975639;28;20197;-90
2021/04/03 10:55:21;;;;;;;8.83;8.03;;;;;;;20.48;100.00;95711.53;4975820;28;20236;-90
2021/04/03 10:57:48;;;;;;;15.00;10.40;;;;;;;20.88;100.00;95692.09;4975497;28;20243;-89
2021/04/03 11:00:16;;;;;;;11.17;10.07;;;;;;;20.04;100.00;95705.75;4975397;28;20244;-90
2021/04/03 11:02:43;;;;;;;10.27;9.27;;;;;;;20.19;100.00;95676.78;4975418;28;20243;-91
2021/04/03 11:05:11;;;;;;;12.40;9.47;;;;;;;19.59;100.00;95674.25;4975681;28;20235;-90
2021/04/03 11:07:37;;;;;;;13.17;11.20;;;;;;;19.72;100.00;95657.28;4975475;28;20277;-91
2021/04/03 11:10:05;;;;;;;10.97;8.97;;;;;;;19.85;100.00;95648.25;4975404;28;20261;-90
2021/04/03 11:12:33;;;;;;;11.50;10.07;;;;;;;20.01;100.00;95660.88;4975718;28;20296;-90
2021/04/03 11:15:00;;;;;;;15.53;9.83;;;;;;;20.22;100.00;95664.81;4975378;28;20713;-90
2021/04/03 11:17:27;;;;;;;11.73;10.07;;;;;;;19.82;100.00;95633.53;4975416;28;20239;-92
2021/04/03 11:19:54;;;;;;;9.97;8.97;;;;;;;20.27;100.00;95643.56;4975053;28;20200;-91
2021/04/03 11:22:21;;;;;;;7.70;6.90;;;;;;;19.95;100.00;95656.47;4975307;28;20197;-91
2021/04/03 11:24:47;;;;;;;8.17;7.47;;;;;;;20.30;100.00;95669.00;4975305;28;20205;-92
2021/04/03 11:27:14;;;;;;;7.83;7.10;;;;;;;20.47;100.00;95651.22;4974909;28;20204;-91
2021/04/03 11:29:42;;;;;;;11.23;6.97;;;;;;;20.25;100.00;95684.88;4974811;28;20296;-92
2021/04/03 11:32:09;;;;;;;8.80;7.90;;;;;;;20.58;100.00;95668.28;4974856;28;20245;-91
2021/04/03 11:34:36;;;;;;;10.30;6.40;;;;;;;20.92;100.00;95658.53;4974760;28;20263;-91